Hot Springs, AR

9:28 PM CST on February 07, 2016 (GMT -0600)
APRSWXNET | | Change Station
CLOSE
Current Station
Personal Weather Station
Location: Hot Springs, AR
Elevation: 600 ft
Nearby Weather Stations
Active Advisory: Lake Wind Advisory

Elev 600 ft 34.51 °N, 93.05 °W | Updated 20 minutes ago

Clear
Clear
51 °F
Feels Like 51 °F
N
4
Wind Variable Wind from SW
Gusts 9.0 mph

Today
High -- | Low -- °F
--% Chance of Precip.
Yesterday
High -- | Low -- °F
Precip. -- in
Pressure 30.08 in
Visibility 10.0 miles
Clouds Clear
Dew Point 31 °F
Humidity 47%
Rainfall in
Snow Depth Not available.
7:05 AM 5:47 PM
Waning Crescent, 0% visible
METAR KHOT 080253Z AUTO 30004KT 10SM CLR 11/M01 A3008 RMK AO2 SLP186 T01111011 51012
Pressure 30.08 in
Visibility 10.0 miles
Clouds Clear
Dew Point 31 °F
Humidity 47%
Rainfall in
Snow Depth Not available.
7:05 AM 5:47 PM
Waning Crescent, 0% visible
METAR KHOT 080253Z AUTO 30004KT 10SM CLR 11/M01 A3008 RMK AO2 SLP186 T01111011 51012

10-Day Weather Forecast

Almanac

Astronomy

Feb. 07, 2016 Rise Set
Actual Time
Civil Twilight
Nautical Twilight
Astronomical Twilight
Moon
Length of Visible Light
Length of Day
Tomorrow will be .
, % of the Moon is Illuminated

Today's Extremes

State Highs State Lows

Community

WunderPhotos

Upload Photos

1,891,377 photos uploaded!

WunderBlog® & News

Nearby

Air Quality

  Air Quality AQ Index Pollutant
Not available.

Snow Depth

Station Depth Elevation

Earthquake Activity

City Distance Mag. Time & Date
Minimum magnitude displayed is 2.5.

Coastal Water Temperatures

Place Temperature

Stations

Nearby Weather Stations

Station Location Temp. Windchill Dew Point Humidity Wind Precip. Elev Updated Type
                   

Watches & Warnings

Lake Wind Advisory
Issued: 2:12 PM CST Feb. 7, 2016 – National Weather Service

... Lake Wind Advisory in effect from 6 am to 6 PM CST Monday...

The National Weather Service in Little Rock has issued a lake
Wind Advisory... which is in effect from 6 am to 6 PM CST Monday.

* Event... low pressure will bring a strong pressure gradient to
the area Monday morning resulting in strong northwest winds.

* Areas affected... this will affect much of Arkansas.

* Timing... the strongest winds will occur between 6 am and 6 PM
Monday.

* Winds... strong northwest winds of 15 to 25 mph will gust to 35
mph or more.

* Impacts... boaters need to use extra caution.
Additionally... winds this strong can make driving difficult at
times... especially for high profile vehicles.

Precautionary/preparedness actions...

A lake Wind Advisory indicates that winds will cause rough chop
on area lakes. Small boats will be especially prone to capsizing.



51